createdAt,value
2018-05-01T00:01:40.434Z,17.63
2018-05-01T00:06:50.763Z,17.57
2018-05-01T00:09:24.341Z,17.51
2018-05-01T00:11:54.116Z,17.41
2018-05-01T00:17:14.612Z,17.21
2018-05-01T00:19:46.030Z,17.14
2018-05-01T00:24:51.312Z,16.98
2018-05-01T00:30:03.884Z,16.99
2018-05-01T00:32:31.562Z,16.96
2018-05-01T00:34:59.983Z,16.93
2018-05-01T00:37:28.882Z,16.88
2018-05-01T00:39:57.344Z,16.90
2018-05-01T00:42:25.580Z,16.88
2018-05-01T00:44:54.686Z,16.83
2018-05-01T00:47:22.214Z,16.81
2018-05-01T00:49:49.642Z,16.78
2018-05-01T00:52:30.022Z,16.75
2018-05-01T00:57:37.088Z,16.76
2018-05-01T01:08:31.522Z,16.61
2018-05-01T01:10:59.046Z,16.55
2018-05-01T01:13:27.432Z,16.56
2018-05-01T01:15:55.175Z,16.54
2018-05-01T01:18:23.276Z,16.51
2018-05-01T01:20:50.761Z,16.40
2018-05-01T01:23:18.219Z,16.44
2018-05-01T01:25:45.670Z,16.43
2018-05-01T01:28:13.114Z,16.38
2018-05-01T01:30:40.786Z,16.39
2018-05-01T01:33:08.458Z,16.31
2018-05-01T01:35:35.378Z,16.26
2018-05-01T01:38:02.405Z,16.18
2018-05-01T01:40:29.384Z,16.15
2018-05-01T01:42:56.590Z,16.13
2018-05-01T01:45:23.481Z,16.11
2018-05-01T01:47:50.396Z,16.12
2018-05-01T01:50:17.295Z,16.10
2018-05-01T01:52:46.108Z,16.10
2018-05-01T01:55:13.034Z,16.09
2018-05-01T01:57:39.931Z,16.04
2018-05-01T02:00:07.048Z,16.05
2018-05-01T02:02:34.187Z,16.00
2018-05-01T02:05:01.579Z,15.99
2018-05-01T02:07:29.121Z,15.96
2018-05-01T02:09:56.802Z,15.93
2018-05-01T02:12:23.692Z,15.90
2018-05-01T02:14:50.586Z,15.86
2018-05-01T02:17:17.510Z,15.86
2018-05-01T02:19:44.634Z,15.86
2018-05-01T02:22:11.534Z,15.81
2018-05-01T02:24:39.221Z,15.75
2018-05-01T02:27:06.193Z,15.75
2018-05-01T02:29:33.099Z,15.78
2018-05-01T02:32:00.061Z,15.78
2018-05-01T02:34:26.986Z,15.73
2018-05-01T02:36:53.943Z,15.71
2018-05-01T02:39:20.860Z,15.70
2018-05-01T02:41:47.776Z,15.66
2018-05-01T02:44:14.703Z,15.68
2018-05-01T02:46:41.619Z,15.63
2018-05-01T02:49:08.555Z,15.65
2018-05-01T02:51:35.497Z,15.61
2018-05-01T02:54:26.653Z,15.65
2018-05-01T02:56:53.762Z,15.59
2018-05-01T02:59:20.671Z,15.57
2018-05-01T03:01:47.638Z,15.54
2018-05-01T03:04:14.542Z,15.56
2018-05-01T03:06:41.446Z,15.52
2018-05-01T03:09:08.346Z,15.51
2018-05-01T03:11:35.258Z,15.49
2018-05-01T03:14:02.214Z,15.48
2018-05-01T03:16:29.218Z,15.52
2018-05-01T03:18:56.122Z,15.49
2018-05-01T03:21:23.046Z,15.56
2018-05-01T03:23:49.972Z,15.53
2018-05-01T03:26:17.006Z,15.50
2018-05-01T03:28:43.978Z,15.45
2018-05-01T03:31:10.881Z,15.42
2018-05-01T03:33:38.069Z,15.47
2018-05-01T03:36:05.082Z,15.46
2018-05-01T03:38:33.062Z,15.45
2018-05-01T03:41:00.147Z,15.37
2018-05-01T03:43:32.163Z,15.38
2018-05-01T03:45:59.189Z,15.41
2018-05-01T03:48:26.125Z,15.36
2018-05-01T03:50:53.149Z,15.36
2018-05-01T03:53:20.106Z,15.41
2018-05-01T03:55:47.123Z,15.37
2018-05-01T03:58:14.016Z,15.33
2018-05-01T04:00:41.850Z,15.30
2018-05-01T04:03:23.875Z,15.26
2018-05-01T04:05:50.836Z,15.25
2018-05-01T04:08:17.814Z,15.25
2018-05-01T04:10:44.813Z,15.26
2018-05-01T04:13:13.771Z,15.22
2018-05-01T04:15:41.027Z,15.17
2018-05-01T04:18:07.999Z,15.19
2018-05-01T04:20:37.480Z,15.24
2018-05-01T04:23:04.660Z,15.18
2018-05-01T04:25:31.563Z,15.13
2018-05-01T04:27:58.550Z,15.17
2018-05-01T04:30:25.451Z,15.15
2018-05-01T04:32:52.487Z,15.14
2018-05-01T04:35:19.753Z,15.11
2018-05-01T04:37:46.685Z,15.08
2018-05-01T04:40:13.603Z,15.10
2018-05-01T04:42:40.499Z,15.08
2018-05-01T04:45:08.536Z,15.03
2018-05-01T04:47:35.652Z,14.97
2018-05-01T04:50:02.567Z,14.97
2018-05-01T04:52:39.343Z,14.93
2018-05-01T04:55:06.773Z,14.87
2018-05-01T04:57:33.679Z,14.91
2018-05-01T05:00:00.724Z,14.91
2018-05-01T05:02:27.636Z,14.87
2018-05-01T05:04:54.654Z,14.86
2018-05-01T05:07:21.598Z,14.89
2018-05-01T05:09:52.369Z,14.91
2018-05-01T05:12:19.341Z,14.86
2018-05-01T05:14:46.343Z,14.88
2018-05-01T05:17:13.297Z,14.86
2018-05-01T05:19:40.217Z,14.85
2018-05-01T05:22:09.877Z,14.82
2018-05-01T05:27:29.997Z,14.84
2018-05-01T05:29:58.725Z,14.82
2018-05-01T05:32:26.117Z,14.76
2018-05-01T05:34:53.902Z,14.78
2018-05-01T05:37:20.857Z,14.74
2018-05-01T05:39:48.533Z,14.72
2018-05-01T05:42:16.268Z,14.64
2018-05-01T05:44:43.213Z,14.66
2018-05-01T05:47:10.217Z,14.66
2018-05-01T05:49:37.207Z,14.60
2018-05-01T05:52:04.206Z,14.61
2018-05-01T05:54:31.235Z,14.59
2018-05-01T05:56:58.136Z,14.56
2018-05-01T05:59:25.110Z,14.57
2018-05-01T06:01:52.095Z,14.52
2018-05-01T06:04:19.015Z,14.51
2018-05-01T06:06:46.291Z,14.54
2018-05-01T06:09:14.007Z,14.57
2018-05-01T06:11:40.994Z,14.55
2018-05-01T06:14:07.897Z,14.51
2018-05-01T06:16:34.903Z,14.42
2018-05-01T06:19:01.876Z,14.38
2018-05-01T06:21:29.001Z,14.31
2018-05-01T06:23:55.993Z,14.30
2018-05-01T06:26:23.868Z,14.34
2018-05-01T06:28:50.865Z,14.33
2018-05-01T06:31:17.843Z,14.34
2018-05-01T06:33:44.738Z,14.35
2018-05-01T06:36:11.641Z,14.33
2018-05-01T06:38:39.419Z,14.30
2018-05-01T06:41:06.433Z,14.21
2018-05-01T06:43:34.126Z,14.25
2018-05-01T06:51:06.926Z,14.32
2018-05-01T06:53:48.668Z,14.29
2018-05-01T06:56:16.590Z,14.34
2018-05-01T06:58:44.131Z,14.36
2018-05-01T07:01:11.902Z,14.32
2018-05-01T07:03:38.846Z,14.32
2018-05-01T07:06:06.127Z,14.44
2018-05-01T07:08:33.451Z,14.54
2018-05-01T07:11:05.992Z,14.58
2018-05-01T07:13:53.644Z,14.51
2018-05-01T07:16:21.076Z,14.44
2018-05-01T07:19:00.144Z,14.33
2018-05-01T07:21:27.876Z,14.25
2018-05-01T07:23:55.206Z,14.17
2018-05-01T07:26:22.367Z,14.06
2018-05-01T07:28:50.574Z,14.07
2018-05-01T07:31:18.661Z,14.01
2018-05-01T07:33:46.391Z,14.04
2018-05-01T07:36:14.242Z,14.01
2018-05-01T07:38:41.440Z,14.03
2018-05-01T07:41:08.395Z,13.98
2018-05-01T07:43:35.437Z,14.02
2018-05-01T07:46:04.547Z,14.05
2018-05-01T07:48:32.730Z,14.06
2018-05-01T07:51:02.661Z,14.13
2018-05-01T07:53:30.965Z,14.16
2018-05-01T07:55:59.003Z,14.23
2018-05-01T07:58:26.838Z,14.30
2018-05-01T08:00:53.891Z,14.33
2018-05-01T08:03:20.885Z,14.43
2018-05-01T08:05:47.965Z,14.49
2018-05-01T08:08:14.998Z,14.55
2018-05-01T08:10:41.999Z,14.58
2018-05-01T08:13:09.579Z,14.62
2018-05-01T08:15:36.571Z,14.50
2018-05-01T08:18:03.536Z,14.57
2018-05-01T08:20:30.473Z,14.61
2018-05-01T08:22:57.417Z,14.72
2018-05-01T08:25:24.320Z,14.82
2018-05-01T08:27:51.302Z,15.04
2018-05-01T08:30:18.292Z,15.20
2018-05-01T08:32:45.236Z,15.23
2018-05-01T08:35:12.163Z,15.11
2018-05-01T08:37:39.161Z,14.97
2018-05-01T08:40:06.160Z,14.87
2018-05-01T08:42:33.088Z,14.86
2018-05-01T08:45:00.064Z,14.86
2018-05-01T08:47:27.013Z,14.93
2018-05-01T08:49:54.387Z,15.04
2018-05-01T08:52:21.332Z,15.16
2018-05-01T08:54:48.234Z,15.23
2018-05-01T08:57:15.194Z,15.37
2018-05-01T08:59:42.149Z,15.46
2018-05-01T09:02:09.128Z,15.49
2018-05-01T09:04:36.083Z,15.53
2018-05-01T09:07:03.483Z,15.49
2018-05-01T09:09:30.599Z,15.58
2018-05-01T09:11:57.487Z,15.61
2018-05-01T09:14:24.417Z,15.65
2018-05-01T09:16:51.355Z,15.74
2018-05-01T09:19:18.299Z,15.79
2018-05-01T09:21:45.420Z,15.88
2018-05-01T09:24:12.441Z,15.98
2018-05-01T09:26:39.440Z,15.96
2018-05-01T09:29:06.349Z,15.95
2018-05-01T09:31:33.987Z,16.08
2018-05-01T09:34:00.947Z,16.10
2018-05-01T09:36:27.900Z,16.15
2018-05-01T09:38:54.801Z,16.28
2018-05-01T09:41:21.793Z,16.16
2018-05-01T09:43:48.727Z,16.27
2018-05-01T09:46:15.758Z,16.37
2018-05-01T09:48:42.667Z,16.37
2018-05-01T09:51:09.659Z,16.39
2018-05-01T09:53:37.141Z,16.46
2018-05-01T09:56:04.987Z,16.36
2018-05-01T09:58:32.513Z,16.44
2018-05-01T10:00:59.985Z,16.62
2018-05-01T10:03:27.511Z,16.90
2018-05-01T10:05:54.965Z,17.07
2018-05-01T10:08:22.447Z,17.05
2018-05-01T10:10:49.951Z,17.13
2018-05-01T10:13:18.262Z,17.25
2018-05-01T10:15:46.131Z,17.37
2018-05-01T10:18:13.592Z,17.50
2018-05-01T10:20:41.056Z,17.61
2018-05-01T10:23:09.312Z,17.65
2018-05-01T10:25:37.726Z,17.77
2018-05-01T10:28:06.438Z,17.83
2018-05-01T10:30:34.007Z,17.91
2018-05-01T10:33:01.472Z,18.01
2018-05-01T10:35:28.995Z,18.06
2018-05-01T10:37:56.525Z,18.04
2018-05-01T10:40:23.996Z,18.14
2018-05-01T10:42:51.828Z,18.27
2018-05-01T10:45:19.305Z,18.41
2018-05-01T10:47:47.057Z,18.63
2018-05-01T10:50:14.513Z,18.83
2018-05-01T10:52:42.005Z,18.90
2018-05-01T10:55:09.454Z,18.98
2018-05-01T10:57:36.915Z,19.10
2018-05-01T11:00:04.365Z,19.10
2018-05-01T11:02:31.815Z,19.19
2018-05-01T11:05:00.088Z,19.38
2018-05-01T11:07:27.550Z,19.55
2018-05-01T11:09:55.153Z,19.66
2018-05-01T11:12:23.565Z,19.71
2018-05-01T11:14:51.043Z,19.84
2018-05-01T11:17:19.408Z,20.02
2018-05-01T11:19:46.902Z,20.31
2018-05-01T11:22:14.356Z,20.74
2018-05-01T11:24:42.063Z,20.78
2018-05-01T11:27:09.571Z,20.65
2018-05-01T11:29:37.010Z,20.46
2018-05-01T11:32:04.461Z,20.03
2018-05-01T11:34:31.891Z,19.52
2018-05-01T11:36:59.328Z,19.57
2018-05-01T11:39:26.802Z,19.78
2018-05-01T11:41:54.337Z,19.94
2018-05-01T11:44:21.767Z,20.08
2018-05-01T11:46:49.261Z,20.39
2018-05-01T11:49:16.761Z,20.84
2018-05-01T11:51:44.425Z,21.15
2018-05-01T11:54:11.965Z,21.65
2018-05-01T11:56:39.549Z,21.42
2018-05-01T11:59:07.001Z,21.42
2018-05-01T12:01:34.474Z,21.03
2018-05-01T12:04:01.948Z,21.41
2018-05-01T12:06:29.985Z,21.32
2018-05-01T12:08:57.472Z,20.62
2018-05-01T12:11:25.104Z,20.05
2018-05-01T12:13:52.974Z,19.76
2018-05-01T12:16:20.539Z,19.38
2018-05-01T12:18:48.032Z,19.04
2018-05-01T12:21:15.506Z,18.92
2018-05-01T12:23:42.976Z,19.10
2018-05-01T12:26:10.561Z,19.46
2018-05-01T12:28:38.059Z,20.04
2018-05-01T12:31:05.728Z,20.44
2018-05-01T12:33:33.165Z,20.75
2018-05-01T12:36:04.125Z,20.58
2018-05-01T12:38:32.571Z,20.80
2018-05-01T12:41:00.067Z,21.11
2018-05-01T12:43:27.521Z,21.45
2018-05-01T12:45:55.003Z,21.54
2018-05-01T12:48:22.607Z,21.76
2018-05-01T12:50:50.058Z,22.24
2018-05-01T12:53:17.513Z,22.65
2018-05-01T12:55:45.097Z,22.67
2018-05-01T12:58:12.574Z,22.66
2018-05-01T13:00:40.088Z,22.49
2018-05-01T13:03:07.549Z,22.15
2018-05-01T13:05:35.272Z,22.01
2018-05-01T13:08:02.800Z,21.82
2018-05-01T13:10:30.273Z,21.71
2018-05-01T13:13:02.721Z,21.72
2018-05-01T13:15:30.159Z,21.70
2018-05-01T13:17:57.634Z,21.61
2018-05-01T13:20:25.341Z,21.53
2018-05-01T13:22:57.806Z,21.47
2018-05-01T13:25:25.290Z,21.44
2018-05-01T13:27:52.925Z,21.50
2018-05-01T13:30:20.375Z,21.38
2018-05-01T13:33:11.832Z,21.30
2018-05-01T13:35:39.309Z,21.23
2018-05-01T13:38:07.491Z,21.12
2018-05-01T13:40:35.076Z,21.10
2018-05-01T13:43:02.525Z,20.96
2018-05-01T13:45:30.066Z,20.73
2018-05-01T13:47:57.512Z,20.48
2018-05-01T13:50:25.106Z,20.46
2018-05-01T13:52:52.598Z,20.57
2018-05-01T13:55:20.181Z,20.63
2018-05-01T13:57:47.559Z,20.84
2018-05-01T14:00:15.005Z,21.02
2018-05-01T14:02:52.248Z,21.32
2018-05-01T14:05:19.710Z,21.51
2018-05-01T14:07:47.407Z,21.17
2018-05-01T14:10:14.915Z,21.08
2018-05-01T14:12:42.498Z,20.93
2018-05-01T14:15:09.959Z,20.78
2018-05-01T14:17:37.676Z,20.76
2018-05-01T14:20:05.109Z,20.75
2018-05-01T14:22:32.585Z,20.81
2018-05-01T14:25:00.187Z,20.73
2018-05-01T14:27:28.394Z,20.19
2018-05-01T14:29:55.861Z,19.71
2018-05-01T14:32:23.335Z,19.63
2018-05-01T14:34:50.876Z,19.67
2018-05-01T14:37:18.370Z,19.81
2018-05-01T14:39:45.949Z,19.88
2018-05-01T14:42:13.399Z,19.93
2018-05-01T14:44:40.957Z,19.92
2018-05-01T14:47:08.462Z,19.96
2018-05-01T14:49:35.995Z,19.84
2018-05-01T14:52:03.488Z,19.76
2018-05-01T14:54:30.965Z,19.73
2018-05-01T14:56:58.509Z,19.67
2018-05-01T14:59:26.072Z,19.53
2018-05-01T15:01:53.569Z,19.36
2018-05-01T15:04:26.022Z,19.14
2018-05-01T15:06:53.577Z,19.09
2018-05-01T15:09:21.674Z,18.94
2018-05-01T15:11:49.203Z,18.75
2018-05-01T15:14:18.204Z,18.52
2018-05-01T15:16:45.844Z,18.34
2018-05-01T15:19:13.438Z,18.26
2018-05-01T15:21:40.974Z,18.19
2018-05-01T15:24:08.727Z,18.20
2018-05-01T15:26:38.697Z,18.20
2018-05-01T15:29:06.921Z,18.23
2018-05-01T15:31:36.057Z,18.23
2018-05-01T15:34:03.655Z,18.29
2018-05-01T15:36:32.461Z,18.16
2018-05-01T15:39:01.695Z,17.99
2018-05-01T15:44:03.493Z,17.96
2018-05-01T15:46:30.995Z,17.90
2018-05-01T15:48:58.427Z,17.91
2018-05-01T15:51:26.057Z,17.93
2018-05-01T15:53:54.500Z,17.85
2018-05-01T15:56:22.191Z,17.78
2018-05-01T15:58:49.807Z,17.73
2018-05-01T16:01:18.062Z,17.71
2018-05-01T16:03:45.488Z,17.74
2018-05-01T16:06:12.967Z,17.81
2018-05-01T16:08:41.039Z,17.83
2018-05-01T16:11:09.891Z,17.79
2018-05-01T16:13:38.071Z,17.80
2018-05-01T16:16:05.708Z,17.80
2018-05-01T16:18:33.170Z,17.74
2018-05-01T16:21:00.659Z,17.73
2018-05-01T16:23:33.133Z,17.78
2018-05-01T16:26:00.567Z,17.84
2018-05-01T16:28:28.012Z,17.79
2018-05-01T16:30:55.478Z,17.79
2018-05-01T16:33:22.957Z,17.73
2018-05-01T16:35:50.426Z,17.69
2018-05-01T16:38:17.887Z,17.65
2018-05-01T16:40:45.341Z,17.54
2018-05-01T16:43:12.784Z,17.51
2018-05-01T16:45:40.267Z,17.54
2018-05-01T16:48:07.749Z,17.49
2018-05-01T16:50:35.199Z,17.46
2018-05-01T16:53:02.699Z,17.48
2018-05-01T16:55:31.222Z,17.46
2018-05-01T16:57:58.696Z,17.40
2018-05-01T17:00:26.237Z,17.39
2018-05-01T17:02:53.757Z,17.39
2018-05-01T17:05:21.231Z,17.39
2018-05-01T17:07:48.715Z,17.36
2018-05-01T17:10:16.655Z,17.29
2018-05-01T17:12:44.208Z,17.27
2018-05-01T17:15:11.656Z,17.26
2018-05-01T17:17:39.166Z,17.27
2018-05-01T17:20:06.635Z,17.21
2018-05-01T17:22:34.863Z,17.20
2018-05-01T17:25:02.320Z,17.20
2018-05-01T17:27:30.500Z,17.22
2018-05-01T17:29:57.973Z,17.16
2018-05-01T17:32:25.521Z,17.12
2018-05-01T17:34:53.067Z,17.06
2018-05-01T17:37:20.629Z,17.01
2018-05-01T17:39:48.107Z,17.03
2018-05-01T17:42:15.595Z,17.03
2018-05-01T17:44:43.097Z,17.01
2018-05-01T17:47:10.639Z,17.01
2018-05-01T17:49:38.139Z,16.95
2018-05-01T17:52:05.585Z,16.88
2018-05-01T17:54:33.260Z,16.85
2018-05-01T17:57:00.778Z,16.84
2018-05-01T17:59:28.258Z,16.75
2018-05-01T18:02:00.421Z,16.79
2018-05-01T18:04:37.699Z,16.75
2018-05-01T18:07:19.159Z,16.66
2018-05-01T18:09:57.572Z,16.68
2018-05-01T18:12:29.732Z,16.62
2018-05-01T18:15:23.981Z,16.56
2018-05-01T18:17:53.474Z,16.49
2018-05-01T18:20:21.050Z,16.51
2018-05-01T18:22:48.573Z,16.51
2018-05-01T18:25:16.047Z,16.55
2018-05-01T18:27:43.527Z,16.54
2018-05-01T18:30:11.089Z,16.57
2018-05-01T18:32:38.812Z,16.52
2018-05-01T18:35:06.266Z,16.41
2018-05-01T18:37:33.733Z,16.35
2018-05-01T18:40:01.259Z,16.32
2018-05-01T18:42:29.002Z,16.32
2018-05-01T18:44:56.871Z,16.29
2018-05-01T18:47:24.400Z,16.29
2018-05-01T18:49:51.898Z,16.23
2018-05-01T18:52:19.480Z,16.30
2018-05-01T18:54:46.942Z,16.26
2018-05-01T18:57:14.414Z,16.25
2018-05-01T18:59:41.922Z,16.20
2018-05-01T19:02:09.432Z,16.17
2018-05-01T19:04:37.015Z,16.13
2018-05-01T19:07:05.106Z,16.09
2018-05-01T19:09:32.634Z,16.01
2018-05-01T19:12:00.224Z,15.88
2018-05-01T19:14:27.856Z,15.87
2018-05-01T19:16:55.333Z,15.94
2018-05-01T19:19:22.865Z,15.98
2018-05-01T19:21:50.389Z,16.03
2018-05-01T19:24:18.004Z,15.95
2018-05-01T19:26:45.485Z,15.87
2018-05-01T19:29:12.990Z,15.79
2018-05-01T19:31:40.472Z,15.71
2018-05-01T19:34:08.180Z,15.55
2018-05-01T19:36:35.943Z,15.53
2018-05-01T19:39:03.527Z,15.48
2018-05-01T19:41:32.164Z,15.48
2018-05-01T19:44:04.947Z,15.38
2018-05-01T19:46:32.646Z,15.30
2018-05-01T19:49:00.891Z,15.26
2018-05-01T19:51:28.934Z,15.23
2018-05-01T19:54:02.960Z,15.28
2018-05-01T19:56:31.378Z,15.33
2018-05-01T19:58:58.983Z,15.36
2018-05-01T20:01:27.400Z,15.44
2018-05-01T20:03:54.974Z,15.46
2018-05-01T20:06:22.845Z,15.53
2018-05-01T20:08:50.373Z,15.50
2018-05-01T20:11:22.291Z,15.48
2018-05-01T20:13:51.364Z,15.48
2018-05-01T20:16:19.937Z,15.33
2018-05-01T20:18:47.430Z,15.19
2018-05-01T20:21:15.080Z,15.16
2018-05-01T20:23:42.602Z,15.17
2018-05-01T20:26:10.205Z,15.20
2018-05-01T20:28:38.474Z,15.24
2018-05-01T20:31:06.244Z,15.22
2018-05-01T20:33:38.758Z,15.21
2018-05-01T20:36:06.590Z,15.20
2018-05-01T20:38:35.691Z,15.20
2018-05-01T20:41:03.192Z,15.19
2018-05-01T20:43:32.276Z,15.11
2018-05-01T20:45:59.848Z,15.08
2018-05-01T20:48:27.370Z,15.02
2018-05-01T20:50:54.940Z,15.01
2018-05-01T20:53:22.419Z,14.98
2018-05-01T20:55:50.159Z,14.96
2018-05-01T20:58:17.768Z,14.93
2018-05-01T21:00:45.357Z,14.90
2018-05-01T21:03:12.868Z,14.89
2018-05-01T21:05:43.034Z,14.97
2018-05-01T21:08:10.515Z,14.91
2018-05-01T21:10:38.150Z,14.90
2018-05-01T21:13:05.725Z,14.89
2018-05-01T21:15:33.210Z,14.87
2018-05-01T21:18:00.789Z,14.84
2018-05-01T21:20:28.297Z,14.78
2018-05-01T21:23:00.795Z,14.78
2018-05-01T21:25:28.336Z,14.80
2018-05-01T21:27:55.830Z,14.79
2018-05-01T21:30:23.612Z,14.76
2018-05-01T21:32:51.115Z,14.74
2018-05-01T21:35:18.650Z,14.69
2018-05-01T21:37:46.568Z,14.60
2018-05-01T21:40:14.049Z,14.57
2018-05-01T21:42:41.727Z,14.61
2018-05-01T21:45:09.243Z,14.58
2018-05-01T21:47:36.702Z,14.55
2018-05-01T21:50:04.168Z,14.53
2018-05-01T21:52:31.694Z,14.49
2018-05-01T21:54:59.155Z,14.36
2018-05-01T21:57:26.629Z,14.20
2018-05-01T21:59:54.387Z,14.17
2018-05-01T22:02:21.846Z,14.04
2018-05-01T22:04:49.328Z,13.97
2018-05-01T22:07:18.081Z,13.97
2018-05-01T22:09:46.734Z,13.94
2018-05-01T22:12:14.269Z,13.88
2018-05-01T22:14:41.745Z,13.77
2018-05-01T22:17:09.305Z,13.71
2018-05-01T22:19:36.788Z,13.63
2018-05-01T22:22:04.312Z,13.58
2018-05-01T22:24:31.936Z,13.48
2018-05-01T22:27:01.977Z,13.48
2018-05-01T22:29:29.599Z,13.51
2018-05-01T22:31:57.183Z,13.59
2018-05-01T22:34:24.685Z,13.64
2018-05-01T22:36:52.219Z,13.54
2018-05-01T22:39:22.249Z,13.54
2018-05-01T22:41:50.075Z,13.56
2018-05-01T22:44:17.551Z,13.50
2018-05-01T22:46:45.069Z,13.49
2018-05-01T22:49:12.649Z,13.55
2018-05-01T22:51:40.269Z,13.52
2018-05-01T22:54:07.727Z,13.48
2018-05-01T22:56:35.161Z,13.47
2018-05-01T22:59:02.713Z,13.43
2018-05-01T23:01:30.369Z,13.43
2018-05-01T23:10:02.437Z,13.45
2018-05-01T23:12:30.241Z,13.40
2018-05-01T23:15:11.980Z,13.33
2018-05-01T23:17:39.679Z,13.33
2018-05-01T23:20:07.176Z,13.31
2018-05-01T23:22:35.146Z,13.27
2018-05-01T23:25:03.483Z,13.25
2018-05-01T23:27:31.659Z,13.25
2018-05-01T23:29:59.945Z,13.27
2018-05-01T23:32:30.731Z,13.26
2018-05-01T23:37:50.528Z,13.18
2018-05-01T23:40:20.054Z,13.16
2018-05-01T23:42:49.891Z,13.22
2018-05-01T23:45:17.385Z,13.16
2018-05-01T23:47:44.845Z,13.14
2018-05-01T23:50:13.745Z,13.02
2018-05-01T23:52:41.201Z,13.01
2018-05-01T23:55:08.651Z,12.99
2018-05-01T23:57:36.097Z,12.97
